createdAt,value
2023-05-11T00:01:47.597Z,9.30
2023-05-11T00:04:14.904Z,10.02
2023-05-11T00:06:41.730Z,10.25
2023-05-11T00:09:09.423Z,9.35
2023-05-11T00:11:36.349Z,9.93
2023-05-11T00:14:03.678Z,11.00
2023-05-11T00:16:30.647Z,10.07
2023-05-11T00:18:57.513Z,9.13
2023-05-11T00:21:24.367Z,9.18
2023-05-11T00:23:51.257Z,8.82
2023-05-11T00:26:18.016Z,9.18
2023-05-11T00:28:45.378Z,8.45
2023-05-11T00:31:12.214Z,9.48
2023-05-11T00:33:39.067Z,8.40
2023-05-11T00:36:06.371Z,8.20
2023-05-11T00:38:33.156Z,9.77
2023-05-11T00:40:59.938Z,9.60
2023-05-11T00:43:26.696Z,9.25
2023-05-11T00:45:53.612Z,9.85
2023-05-11T00:48:20.454Z,9.27
2023-05-11T00:50:47.732Z,8.43
2023-05-11T00:53:14.630Z,7.70
2023-05-11T00:55:41.958Z,8.35
2023-05-11T00:58:08.749Z,8.65
2023-05-11T01:00:36.631Z,8.18
2023-05-11T01:03:03.801Z,7.85
2023-05-11T01:05:48.607Z,7.47
2023-05-11T01:08:25.006Z,7.80
2023-05-11T01:11:07.217Z,8.15
2023-05-11T01:13:48.903Z,7.25
2023-05-11T01:16:21.621Z,6.93
2023-05-11T01:19:19.484Z,6.63
2023-05-11T01:21:50.747Z,6.78
2023-05-11T01:24:47.710Z,7.57
2023-05-11T01:27:56.518Z,7.45
2023-05-11T01:30:31.387Z,6.57
2023-05-11T01:33:08.557Z,6.95
2023-05-11T01:35:41.348Z,7.88
2023-05-11T01:38:13.296Z,7.57
2023-05-11T01:40:42.867Z,7.32
2023-05-11T01:43:14.494Z,7.60
2023-05-11T01:45:50.475Z,7.63
2023-05-11T01:48:28.814Z,7.63
2023-05-11T01:51:00.516Z,7.32
2023-05-11T01:53:32.464Z,7.18
2023-05-11T01:56:01.917Z,6.72
2023-05-11T01:58:29.898Z,7.40
2023-05-11T02:01:00.154Z,7.22
2023-05-11T02:03:29.861Z,7.05
2023-05-11T02:05:58.324Z,6.50
2023-05-11T02:08:27.244Z,7.40
2023-05-11T02:10:55.263Z,6.63
2023-05-11T02:13:23.139Z,6.32
2023-05-11T02:15:52.371Z,5.97
2023-05-11T02:18:20.857Z,6.90
2023-05-11T02:20:48.422Z,6.90
2023-05-11T02:23:16.454Z,6.60
2023-05-11T02:25:43.729Z,6.65
2023-05-11T02:28:10.597Z,5.95
2023-05-11T02:30:46.161Z,6.20
2023-05-11T02:33:19.612Z,6.10
2023-05-11T02:35:47.735Z,5.37
2023-05-11T02:38:15.803Z,5.88
2023-05-11T02:40:49.295Z,5.75
2023-05-11T02:43:23.162Z,6.40
2023-05-11T02:45:54.097Z,6.35
2023-05-11T02:48:31.612Z,5.38
2023-05-11T02:51:02.415Z,6.03
2023-05-11T02:53:32.162Z,5.70
2023-05-11T02:56:00.838Z,5.57
2023-05-11T02:58:28.798Z,5.45
2023-05-11T03:00:56.335Z,6.25
2023-05-11T03:03:23.627Z,6.10
2023-05-11T03:05:51.128Z,5.53
2023-05-11T03:08:18.075Z,6.13
2023-05-11T03:10:45.193Z,6.38
2023-05-11T03:13:12.472Z,6.10
2023-05-11T03:15:40.640Z,6.05
2023-05-11T03:18:08.426Z,5.90
2023-05-11T03:20:39.142Z,6.18
2023-05-11T03:23:06.977Z,5.82
2023-05-11T03:25:34.689Z,5.35
2023-05-11T03:28:05.365Z,5.25
2023-05-11T03:30:32.946Z,5.97
2023-05-11T03:32:59.950Z,5.60
2023-05-11T03:35:29.393Z,6.10
2023-05-11T03:37:57.514Z,5.32
2023-05-11T03:40:25.138Z,4.95
2023-05-11T03:42:55.412Z,6.13
2023-05-11T03:45:23.038Z,5.57
2023-05-11T03:47:51.386Z,5.72
2023-05-11T03:50:19.689Z,4.65
2023-05-11T03:52:49.950Z,6.25
2023-05-11T03:55:16.765Z,5.00
2023-05-11T03:57:43.799Z,5.60
2023-05-11T04:00:11.638Z,5.80
2023-05-11T04:02:38.621Z,4.80
2023-05-11T04:05:10.189Z,5.88
2023-05-11T04:07:38.615Z,5.63
2023-05-11T04:10:06.815Z,5.88
2023-05-11T04:12:33.719Z,5.65
2023-05-11T04:15:00.502Z,6.13
2023-05-11T04:17:27.287Z,5.82
2023-05-11T04:19:54.054Z,6.00
2023-05-11T04:22:20.893Z,6.47
2023-05-11T04:24:47.647Z,6.57
2023-05-11T04:27:16.343Z,6.00
2023-05-11T04:29:43.159Z,6.38
2023-05-11T04:32:09.952Z,6.65
2023-05-11T04:34:36.923Z,6.97
2023-05-11T04:37:07.193Z,6.78
2023-05-11T04:39:34.866Z,6.28
2023-05-11T04:42:01.962Z,6.82
2023-05-11T04:44:28.789Z,7.55
2023-05-11T04:46:57.047Z,7.28
2023-05-11T04:49:23.966Z,7.22
2023-05-11T04:51:50.877Z,8.35
2023-05-11T04:54:17.748Z,8.63
2023-05-11T04:56:44.594Z,8.70
2023-05-11T04:59:11.356Z,7.85
2023-05-11T05:01:39.702Z,9.15
2023-05-11T05:04:06.747Z,9.48
2023-05-11T05:06:33.748Z,9.40
2023-05-11T05:09:00.815Z,10.45
2023-05-11T05:11:27.659Z,10.63
2023-05-11T05:13:54.960Z,10.48
2023-05-11T05:16:21.813Z,9.90
2023-05-11T05:18:48.713Z,11.95
2023-05-11T05:21:15.652Z,10.07
2023-05-11T05:23:42.414Z,11.25
2023-05-11T05:26:09.211Z,11.15
2023-05-11T05:28:35.978Z,12.35
2023-05-11T05:31:02.855Z,12.55
2023-05-11T05:33:29.674Z,12.07
2023-05-11T05:35:56.467Z,12.30
2023-05-11T05:38:23.269Z,12.68
2023-05-11T05:40:50.176Z,13.27
2023-05-11T05:43:17.147Z,13.45
2023-05-11T05:45:43.906Z,12.45
2023-05-11T05:48:10.737Z,13.13
2023-05-11T05:50:37.685Z,13.73
2023-05-11T05:53:04.518Z,14.00
2023-05-11T05:55:31.419Z,13.00
2023-05-11T05:57:58.185Z,13.57
2023-05-11T06:00:25.034Z,13.63
2023-05-11T06:02:51.845Z,13.73
2023-05-11T06:05:18.649Z,15.38
2023-05-11T06:07:51.433Z,14.52
2023-05-11T06:10:25.834Z,13.90
2023-05-11T06:12:52.618Z,13.05
2023-05-11T06:15:19.419Z,15.00
2023-05-11T06:17:46.233Z,14.07
2023-05-11T06:20:13.850Z,14.48
2023-05-11T06:22:40.714Z,14.10
2023-05-11T06:25:07.926Z,13.52
2023-05-11T06:27:34.718Z,14.82
2023-05-11T06:30:01.580Z,14.30
2023-05-11T06:32:28.346Z,13.50
2023-05-11T06:34:55.212Z,13.95
2023-05-11T06:37:22.075Z,14.05
2023-05-11T06:39:48.858Z,14.27
2023-05-11T06:42:15.835Z,14.23
2023-05-11T06:44:43.861Z,14.35
2023-05-11T06:47:11.201Z,14.85
2023-05-11T06:49:44.934Z,13.43
2023-05-11T06:52:11.964Z,13.80
2023-05-11T06:54:38.774Z,13.32
2023-05-11T06:57:08.338Z,14.13
2023-05-11T06:59:35.199Z,14.38
2023-05-11T07:02:02.067Z,14.15
2023-05-11T07:04:29.741Z,15.05
2023-05-11T07:06:56.653Z,15.45
2023-05-11T07:09:23.493Z,15.60
2023-05-11T07:11:52.037Z,15.32
2023-05-11T07:14:19.050Z,14.35
2023-05-11T07:16:46.434Z,15.38
2023-05-11T07:19:13.663Z,15.02
2023-05-11T07:21:40.515Z,14.13
2023-05-11T07:24:07.418Z,15.48
2023-05-11T07:26:34.208Z,14.55
2023-05-11T07:29:00.994Z,14.50
2023-05-11T07:31:29.938Z,14.85
2023-05-11T07:33:57.039Z,13.75
2023-05-11T07:36:23.864Z,13.57
2023-05-11T07:38:50.703Z,13.13
2023-05-11T07:41:19.097Z,13.75
2023-05-11T07:43:45.886Z,13.10
2023-05-11T07:46:12.693Z,13.68
2023-05-11T07:48:39.518Z,12.88
2023-05-11T07:51:07.463Z,13.45
2023-05-11T07:53:35.107Z,13.25
2023-05-11T07:56:03.748Z,12.32
2023-05-11T07:58:30.901Z,11.48
2023-05-11T08:00:57.752Z,10.95
2023-05-11T08:03:24.610Z,11.02
2023-05-11T08:05:51.475Z,11.25
2023-05-11T08:08:18.353Z,11.30
2023-05-11T08:10:45.159Z,10.05
2023-05-11T08:13:11.947Z,10.10
2023-05-11T08:15:39.008Z,10.25
2023-05-11T08:18:06.703Z,10.55
2023-05-11T08:20:41.054Z,10.18
2023-05-11T08:23:17.019Z,9.57
2023-05-11T08:25:55.480Z,9.00
2023-05-11T08:28:22.867Z,8.02
2023-05-11T08:30:57.656Z,7.53
2023-05-11T08:33:37.729Z,6.72
2023-05-11T08:36:07.038Z,7.20
2023-05-11T08:38:37.519Z,7.50
2023-05-11T08:41:04.889Z,7.22
2023-05-11T08:43:34.874Z,7.95
2023-05-11T08:46:07.445Z,6.57
2023-05-11T08:48:34.724Z,6.60
2023-05-11T08:51:04.626Z,7.10
2023-05-11T08:53:31.843Z,6.32
2023-05-11T08:56:01.028Z,7.45
2023-05-11T08:58:31.156Z,6.60
2023-05-11T09:00:59.153Z,8.25
2023-05-11T09:03:29.692Z,7.53
2023-05-11T09:05:57.456Z,7.50
2023-05-11T09:08:27.235Z,7.50
2023-05-11T09:10:54.534Z,7.68
2023-05-11T09:13:21.364Z,7.15
2023-05-11T09:15:48.176Z,7.63
2023-05-11T09:18:14.942Z,8.43
2023-05-11T09:20:43.977Z,8.68
2023-05-11T09:23:10.889Z,8.32
2023-05-11T09:25:39.637Z,7.28
2023-05-11T09:28:06.410Z,8.45
2023-05-11T09:30:34.291Z,7.57
2023-05-11T09:33:02.680Z,7.97
2023-05-11T09:35:35.059Z,9.07
2023-05-11T09:38:11.710Z,7.82
2023-05-11T09:40:44.080Z,8.10
2023-05-11T09:43:28.485Z,7.40
2023-05-11T09:45:58.636Z,7.80
2023-05-11T09:48:32.726Z,7.90
2023-05-11T09:51:05.784Z,7.68
2023-05-11T09:53:44.513Z,8.05
2023-05-11T09:56:12.749Z,7.05
2023-05-11T09:58:49.644Z,7.82
2023-05-11T10:01:19.267Z,7.53
2023-05-11T10:04:02.575Z,7.40
2023-05-11T10:06:53.234Z,6.90
2023-05-11T10:09:25.479Z,7.68
2023-05-11T10:11:55.470Z,7.07
2023-05-11T10:14:23.992Z,8.25
2023-05-11T10:16:52.217Z,7.88
2023-05-11T10:19:19.620Z,7.18
2023-05-11T10:21:46.663Z,7.50
2023-05-11T10:24:14.393Z,8.30
2023-05-11T10:26:41.324Z,8.40
2023-05-11T10:29:09.533Z,8.25
2023-05-11T10:31:37.719Z,8.38
2023-05-11T10:34:04.953Z,8.25
2023-05-11T10:36:35.064Z,8.23
2023-05-11T10:39:01.838Z,8.40
2023-05-11T10:41:52.812Z,8.77
2023-05-11T10:44:28.345Z,7.25
2023-05-11T10:47:25.396Z,8.63
2023-05-11T10:50:37.773Z,8.30
2023-05-11T10:53:27.956Z,7.57
2023-05-11T10:56:44.304Z,8.73
2023-05-11T10:59:45.382Z,7.57
2023-05-11T11:02:12.215Z,7.78
2023-05-11T11:04:50.835Z,8.13
2023-05-11T11:07:20.747Z,7.88
2023-05-11T11:10:00.798Z,7.78
2023-05-11T11:12:29.629Z,7.93
2023-05-11T11:15:06.329Z,7.53
2023-05-11T11:17:35.841Z,7.10
2023-05-11T11:20:07.536Z,6.85
2023-05-11T11:22:41.560Z,7.43
2023-05-11T11:25:10.280Z,6.35
2023-05-11T11:27:40.139Z,6.60
2023-05-11T11:30:23.115Z,6.47
2023-05-11T11:32:55.100Z,5.45
2023-05-11T11:35:43.146Z,5.82
2023-05-11T11:38:12.764Z,5.68
2023-05-11T11:40:57.798Z,5.70
2023-05-11T11:43:28.723Z,5.30
2023-05-11T11:46:03.527Z,5.90
2023-05-11T11:48:36.725Z,6.30
2023-05-11T11:51:13.111Z,6.57
2023-05-11T11:53:43.810Z,6.57
2023-05-11T11:56:16.226Z,6.93
2023-05-11T11:58:46.118Z,7.80
2023-05-11T12:01:14.789Z,7.78
2023-05-11T12:03:44.657Z,6.15
2023-05-11T12:06:13.297Z,7.80
2023-05-11T12:08:41.344Z,7.50
2023-05-11T12:11:08.623Z,7.07
2023-05-11T12:13:36.065Z,7.85
2023-05-11T12:16:15.023Z,8.10
2023-05-11T12:18:51.595Z,8.40
2023-05-11T12:21:27.791Z,7.57
2023-05-11T12:23:57.245Z,7.93
2023-05-11T12:26:27.669Z,7.80
2023-05-11T12:29:14.594Z,8.57
2023-05-11T12:31:43.747Z,9.30
2023-05-11T12:34:23.307Z,8.45
2023-05-11T12:36:52.647Z,8.52
2023-05-11T12:39:27.396Z,8.68
2023-05-11T12:41:56.145Z,8.75
2023-05-11T12:44:26.033Z,8.10
2023-05-11T12:46:53.431Z,8.55
2023-05-11T12:49:26.251Z,9.20
2023-05-11T12:52:00.040Z,9.55
2023-05-11T12:54:29.879Z,9.30
2023-05-11T12:56:56.970Z,9.85
2023-05-11T12:59:41.960Z,9.68
2023-05-11T13:02:17.986Z,9.00
2023-05-11T13:04:46.811Z,9.13
2023-05-11T13:07:24.119Z,8.40
2023-05-11T13:10:01.251Z,9.90
2023-05-11T13:12:32.015Z,9.23
2023-05-11T13:15:12.724Z,8.40
2023-05-11T13:17:42.479Z,8.43
2023-05-11T13:20:32.639Z,8.93
2023-05-11T13:23:08.061Z,8.02
2023-05-11T13:25:54.238Z,8.98
2023-05-11T13:28:24.152Z,9.00
2023-05-11T13:30:58.227Z,8.23
2023-05-11T13:33:25.346Z,9.85
2023-05-11T13:35:52.121Z,8.60
2023-05-11T13:38:18.902Z,9.73
2023-05-11T13:40:46.270Z,9.65
2023-05-11T13:43:13.154Z,10.07
2023-05-11T13:45:42.679Z,9.27
2023-05-11T13:48:09.557Z,9.60
2023-05-11T13:50:36.516Z,9.00
2023-05-11T13:53:03.309Z,10.57
2023-05-11T13:55:30.661Z,10.23
2023-05-11T13:57:57.987Z,9.32
2023-05-11T14:00:25.185Z,10.98
2023-05-11T14:02:52.674Z,10.00
2023-05-11T14:05:19.899Z,10.75
2023-05-11T14:07:48.960Z,11.02
2023-05-11T14:10:17.633Z,10.95
2023-05-11T14:12:45.286Z,10.38
2023-05-11T14:15:12.449Z,11.18
2023-05-11T14:17:41.548Z,11.45
2023-05-11T14:20:09.258Z,10.15
2023-05-11T14:22:36.392Z,10.93
2023-05-11T14:25:03.158Z,11.52
2023-05-11T14:27:29.949Z,11.60
2023-05-11T14:29:56.763Z,11.82
2023-05-11T14:32:23.620Z,11.15
2023-05-11T14:34:50.652Z,11.70
2023-05-11T14:37:17.424Z,11.43
2023-05-11T14:39:44.231Z,12.30
2023-05-11T14:42:11.105Z,12.43
2023-05-11T14:44:37.923Z,12.55
2023-05-11T14:47:05.628Z,12.75
2023-05-11T14:49:32.540Z,11.77
2023-05-11T14:51:59.727Z,12.70
2023-05-11T14:54:26.631Z,10.60
2023-05-11T14:56:55.469Z,13.02
2023-05-11T14:59:26.874Z,11.93
2023-05-11T15:01:53.868Z,12.02
2023-05-11T15:04:20.902Z,11.48
2023-05-11T15:06:48.101Z,10.55
2023-05-11T15:09:14.901Z,10.52
2023-05-11T15:11:41.832Z,11.20
2023-05-11T15:14:08.644Z,10.60
2023-05-11T15:16:35.699Z,12.00
2023-05-11T15:19:02.628Z,10.35
2023-05-11T15:21:29.477Z,11.05
2023-05-11T15:23:56.269Z,10.63
2023-05-11T15:26:24.153Z,11.52
2023-05-11T15:28:51.004Z,10.50
2023-05-11T15:31:17.869Z,9.73
2023-05-11T15:33:44.904Z,9.48
2023-05-11T15:36:13.871Z,10.63
2023-05-11T15:38:42.921Z,9.77
2023-05-11T15:41:09.937Z,9.40
2023-05-11T15:43:36.873Z,9.50
2023-05-11T15:46:04.804Z,10.57
2023-05-11T15:48:31.856Z,9.52
2023-05-11T15:51:01.976Z,8.82
2023-05-11T15:53:29.038Z,8.93
2023-05-11T15:55:56.711Z,8.95
2023-05-11T15:58:23.671Z,8.32
2023-05-11T16:00:50.730Z,8.35
2023-05-11T16:03:17.726Z,8.32
2023-05-11T16:05:45.427Z,8.13
2023-05-11T16:08:13.056Z,7.75
2023-05-11T16:10:40.288Z,7.38
2023-05-11T16:13:08.250Z,7.20
2023-05-11T16:15:35.069Z,8.20
2023-05-11T16:18:05.344Z,8.68
2023-05-11T16:20:32.564Z,8.35
2023-05-11T16:22:59.341Z,8.25
2023-05-11T16:25:26.191Z,8.68
2023-05-11T16:27:52.927Z,8.98
2023-05-11T16:30:24.847Z,8.02
2023-05-11T16:32:52.802Z,8.55
2023-05-11T16:35:19.952Z,8.77
2023-05-11T16:37:47.761Z,9.10
2023-05-11T16:40:14.960Z,9.70
2023-05-11T16:42:42.476Z,9.02
2023-05-11T16:45:09.683Z,8.80
2023-05-11T16:47:36.491Z,8.90
2023-05-11T16:50:03.679Z,9.13
2023-05-11T16:52:30.618Z,9.60
2023-05-11T16:54:59.101Z,9.02
2023-05-11T16:57:26.634Z,9.52
2023-05-11T16:59:53.503Z,8.57
2023-05-11T17:02:21.148Z,8.77
2023-05-11T17:04:48.758Z,7.88
2023-05-11T17:07:16.072Z,8.70
2023-05-11T17:09:43.203Z,8.52
2023-05-11T17:12:10.748Z,9.05
2023-05-11T17:14:37.820Z,8.88
2023-05-11T17:17:06.758Z,8.48
2023-05-11T17:19:34.492Z,9.65
2023-05-11T17:22:01.367Z,9.88
2023-05-11T17:24:28.492Z,9.27
2023-05-11T17:26:55.498Z,8.63
2023-05-11T17:29:22.455Z,8.38
2023-05-11T17:31:51.436Z,8.68
2023-05-11T17:34:19.391Z,8.52
2023-05-11T17:36:46.583Z,9.13
2023-05-11T17:39:13.662Z,8.45
2023-05-11T17:41:40.481Z,9.57
2023-05-11T17:44:07.333Z,8.85
2023-05-11T17:46:34.572Z,9.32
2023-05-11T17:49:02.030Z,9.20
2023-05-11T17:51:29.353Z,9.07
2023-05-11T17:53:56.243Z,9.52
2023-05-11T17:56:23.359Z,9.35
2023-05-11T17:58:51.454Z,9.15
2023-05-11T18:01:18.874Z,10.32
2023-05-11T18:03:46.702Z,9.82
2023-05-11T18:06:13.776Z,10.00
2023-05-11T18:08:40.789Z,9.68
2023-05-11T18:11:10.025Z,10.05
2023-05-11T18:13:36.918Z,10.07
2023-05-11T18:16:04.165Z,9.82
2023-05-11T18:18:31.885Z,10.15
2023-05-11T18:20:59.244Z,11.38
2023-05-11T18:23:26.381Z,10.55
2023-05-11T18:25:53.415Z,10.82
2023-05-11T18:28:20.519Z,10.98
2023-05-11T18:30:47.450Z,11.07
2023-05-11T18:33:14.204Z,9.90
2023-05-11T18:35:43.089Z,8.93
2023-05-11T18:38:09.869Z,9.98
2023-05-11T18:40:36.687Z,10.75
2023-05-11T18:43:03.962Z,9.27
2023-05-11T18:45:32.883Z,9.68
2023-05-11T18:47:59.785Z,8.27
2023-05-11T18:50:28.114Z,8.68
2023-05-11T18:52:55.126Z,9.10
2023-05-11T18:55:22.116Z,10.13
2023-05-11T18:57:52.327Z,10.98
2023-05-11T19:00:20.446Z,8.95
2023-05-11T19:02:48.160Z,9.60
2023-05-11T19:05:15.346Z,9.63
2023-05-11T19:07:42.249Z,11.07
2023-05-11T19:10:09.355Z,11.15
2023-05-11T19:12:36.185Z,9.25
2023-05-11T19:15:04.235Z,12.85
2023-05-11T19:17:31.119Z,11.38
2023-05-11T19:19:57.976Z,10.73
2023-05-11T19:22:24.879Z,11.27
2023-05-11T19:24:51.664Z,10.18
2023-05-11T19:27:18.455Z,10.07
2023-05-11T19:29:45.236Z,9.77
2023-05-11T19:32:12.073Z,8.63
2023-05-11T19:34:38.842Z,10.10
2023-05-11T19:37:06.909Z,9.48
2023-05-11T19:39:33.673Z,9.23
2023-05-11T19:42:00.761Z,9.30
2023-05-11T19:44:32.828Z,11.33
2023-05-11T19:46:59.694Z,8.30
2023-05-11T19:49:27.877Z,10.30
2023-05-11T19:51:54.887Z,10.32
2023-05-11T19:54:22.170Z,9.20
2023-05-11T19:56:49.044Z,9.35
2023-05-11T19:59:15.888Z,10.93
2023-05-11T20:01:42.746Z,10.32
2023-05-11T20:04:11.786Z,11.50
2023-05-11T20:06:38.597Z,11.88
2023-05-11T20:09:05.639Z,11.02
2023-05-11T20:11:32.415Z,10.30
2023-05-11T20:14:00.743Z,9.98
2023-05-11T20:16:30.244Z,10.60
2023-05-11T20:18:59.179Z,12.00
2023-05-11T20:21:26.222Z,11.82
2023-05-11T20:23:53.037Z,12.40
2023-05-11T20:26:19.805Z,11.00
2023-05-11T20:28:46.587Z,11.68
2023-05-11T20:31:13.406Z,11.15
2023-05-11T20:36:10.433Z,11.05
2023-05-11T20:38:37.221Z,10.23
2023-05-11T20:41:03.994Z,9.88
2023-05-11T20:43:30.802Z,10.07
2023-05-11T20:46:06.008Z,9.60
2023-05-11T20:48:40.509Z,9.32
2023-05-11T20:51:08.459Z,9.57
2023-05-11T20:53:35.244Z,8.73
2023-05-11T20:56:03.205Z,8.82
2023-05-11T20:58:31.525Z,7.78
2023-05-11T21:00:58.465Z,8.82
2023-05-11T21:03:26.705Z,8.82
2023-05-11T21:05:53.637Z,7.82
2023-05-11T21:08:20.621Z,7.55
2023-05-11T21:10:47.969Z,7.93
2023-05-11T21:13:14.760Z,7.90
2023-05-11T21:15:41.612Z,7.97
2023-05-11T21:18:08.512Z,8.07
2023-05-11T21:20:35.828Z,7.68
2023-05-11T21:23:02.669Z,7.28
2023-05-11T21:25:29.794Z,8.02
2023-05-11T21:27:56.605Z,8.07
2023-05-11T21:30:23.440Z,7.85
2023-05-11T21:32:50.652Z,8.38
2023-05-11T21:35:17.881Z,8.18
2023-05-11T21:37:49.222Z,7.85
2023-05-11T21:40:17.417Z,7.40
2023-05-11T21:42:44.555Z,7.10
2023-05-11T21:45:11.952Z,7.72
2023-05-11T21:47:38.893Z,7.28
2023-05-11T21:50:08.357Z,7.03
2023-05-11T21:52:36.953Z,6.95
2023-05-11T21:55:04.711Z,7.05
2023-05-11T21:57:31.672Z,6.75
2023-05-11T21:59:58.459Z,6.47
2023-05-11T22:02:25.647Z,6.72
2023-05-11T22:04:52.589Z,6.40
2023-05-11T22:07:19.948Z,6.20
2023-05-11T22:09:46.774Z,7.15
2023-05-11T22:12:13.581Z,5.88
2023-05-11T22:14:41.266Z,6.07
2023-05-11T22:17:08.172Z,5.80
2023-05-11T22:19:34.936Z,5.97
2023-05-11T22:22:02.138Z,6.00
2023-05-11T22:24:28.916Z,6.45
2023-05-11T22:26:56.256Z,6.85
2023-05-11T22:29:23.071Z,5.72
2023-05-11T22:31:49.930Z,6.32
2023-05-11T22:34:16.988Z,5.93
2023-05-11T22:36:47.245Z,5.97
2023-05-11T22:39:14.076Z,6.63
2023-05-11T22:41:40.928Z,6.45
2023-05-11T22:44:09.173Z,6.40
2023-05-11T22:46:36.001Z,6.80
2023-05-11T22:49:02.845Z,5.63
2023-05-11T22:51:29.670Z,5.70
2023-05-11T22:53:56.468Z,5.80
2023-05-11T22:56:23.220Z,5.53
2023-05-11T22:58:51.912Z,5.50
2023-05-11T23:01:18.895Z,5.68
2023-05-11T23:03:46.524Z,6.47
2023-05-11T23:06:13.278Z,5.63
2023-05-11T23:08:40.089Z,6.47
2023-05-11T23:11:07.459Z,6.20
2023-05-11T23:13:34.889Z,6.32
2023-05-11T23:16:04.527Z,6.30
2023-05-11T23:18:32.082Z,6.15
2023-05-11T23:21:00.178Z,5.85
2023-05-11T23:23:27.244Z,6.13
2023-05-11T23:25:54.188Z,5.78
2023-05-11T23:28:20.991Z,6.05
2023-05-11T23:30:47.862Z,5.53
2023-05-11T23:33:15.057Z,5.65
2023-05-11T23:35:41.926Z,5.88
2023-05-11T23:38:08.739Z,5.82
2023-05-11T23:40:36.180Z,6.10
2023-05-11T23:43:03.052Z,5.93
2023-05-11T23:45:29.959Z,7.05
2023-05-11T23:47:56.988Z,6.13
2023-05-11T23:50:23.794Z,5.80
2023-05-11T23:52:50.644Z,5.53
2023-05-11T23:55:17.525Z,6.07
2023-05-11T23:57:44.954Z,5.60
